Details for Southwest Airlines at KDEN




Go Back


Latest METAR
Local Time

KDEN 022153Z 04005KT 10SM OVC009 M04/M06 A2996 RMK AO2 SLP162 T10391056
02/04/2020, 16:11:53

Description
Results
Southwest Airlines Logo
Number of Pilots based at KDEN
0 Pilots Based here
Number of Southwest Airlines Flights Departed from KDEN
6 Flights Departed
Number of Southwest Airlines Flights Arrived at KDEN
6 Flights Arrived
Number of Southwest Airlines Schedules Departing from KDEN
1016 Schedules
Number of Southwest Airlines Schedules Arriving at KDEN
1018 Schedules
Number of Southwest Airlines Schedules Departing from KDEN availible today
354 Schedules Today
Number of Southwest Airlines Schedules Arriving at KDEN availible today
355 Schedules Today
Average Landing Rate at KDEN
-257 fpm
Southwest Airlines Average Landing Rate at KDEN
-216 fpm
Total Fuel Purchased at KDEN by Southwest Airlines
31,601.78 kgs / 69,669.28 lbs

Pilots Based at KDEN


Pilot ID
Pilot Name
Pilot Rank
No. of Flights
No. of Flying Hours
There are no pilots assigned to this hub!   Will you be the first?